sensor_id;sensor_type;location;lat;lon;timestamp;temperature;humidity
49413;DHT22;35493;50.276;9.372;2023-08-08T00:00:33;13.70;87.20
49413;DHT22;35493;50.276;9.372;2023-08-08T00:03:00;13.70;87.10
49413;DHT22;35493;50.276;9.372;2023-08-08T00:05:27;13.70;86.90
49413;DHT22;35493;50.276;9.372;2023-08-08T00:07:54;13.70;86.80
49413;DHT22;35493;50.276;9.372;2023-08-08T00:10:25;13.70;86.70
49413;DHT22;35493;50.276;9.372;2023-08-08T00:12:53;13.70;86.50
49413;DHT22;35493;50.276;9.372;2023-08-08T00:15:20;13.70;86.50
49413;DHT22;35493;50.276;9.372;2023-08-08T00:17:47;13.60;86.60
49413;DHT22;35493;50.276;9.372;2023-08-08T00:20:14;13.60;86.70
49413;DHT22;35493;50.276;9.372;2023-08-08T00:22:41;13.60;86.80
49413;DHT22;35493;50.276;9.372;2023-08-08T00:25:08;13.60;86.90
49413;DHT22;35493;50.276;9.372;2023-08-08T00:27:37;13.50;86.80
49413;DHT22;35493;50.276;9.372;2023-08-08T00:30:09;13.50;86.90
49413;DHT22;35493;50.276;9.372;2023-08-08T00:32:36;13.50;86.90
49413;DHT22;35493;50.276;9.372;2023-08-08T00:35:04;13.40;87.00
49413;DHT22;35493;50.276;9.372;2023-08-08T00:37:31;13.40;87.00
49413;DHT22;35493;50.276;9.372;2023-08-08T00:39:58;13.40;87.00
49413;DHT22;35493;50.276;9.372;2023-08-08T00:42:25;13.40;87.00
49413;DHT22;35493;50.276;9.372;2023-08-08T00:44:54;13.40;86.90
49413;DHT22;35493;50.276;9.372;2023-08-08T00:47:28;13.40;87.00
49413;DHT22;35493;50.276;9.372;2023-08-08T00:49:55;13.40;87.10
49413;DHT22;35493;50.276;9.372;2023-08-08T00:52:23;13.30;87.20
49413;DHT22;35493;50.276;9.372;2023-08-08T00:54:51;13.40;87.20
49413;DHT22;35493;50.276;9.372;2023-08-08T00:57:20;13.40;87.20
49413;DHT22;35493;50.276;9.372;2023-08-08T01:00:01;13.30;87.30
49413;DHT22;35493;50.276;9.372;2023-08-08T01:02:39;13.30;87.20
49413;DHT22;35493;50.276;9.372;2023-08-08T01:05:06;13.30;87.20
49413;DHT22;35493;50.276;9.372;2023-08-08T01:07:36;13.30;87.30
49413;DHT22;35493;50.276;9.372;2023-08-08T01:10:05;13.30;87.30
49413;DHT22;35493;50.276;9.372;2023-08-08T01:12:33;13.30;87.30
49413;DHT22;35493;50.276;9.372;2023-08-08T01:15:03;13.20;87.20
49413;DHT22;35493;50.276;9.372;2023-08-08T01:17:31;13.30;87.20
49413;DHT22;35493;50.276;9.372;2023-08-08T01:20:00;13.20;87.20
49413;DHT22;35493;50.276;9.372;2023-08-08T01:22:41;13.20;87.20
49413;DHT22;35493;50.276;9.372;2023-08-08T01:25:11;13.20;87.20
49413;DHT22;35493;50.276;9.372;2023-08-08T01:27:38;13.20;87.20
49413;DHT22;35493;50.276;9.372;2023-08-08T01:30:07;13.20;87.10
49413;DHT22;35493;50.276;9.372;2023-08-08T01:32:35;13.20;87.10
49413;DHT22;35493;50.276;9.372;2023-08-08T01:35:02;13.20;87.20
49413;DHT22;35493;50.276;9.372;2023-08-08T01:37:29;13.20;87.00
49413;DHT22;35493;50.276;9.372;2023-08-08T01:40:00;13.20;86.80
49413;DHT22;35493;50.276;9.372;2023-08-08T01:42:29;13.20;86.70
49413;DHT22;35493;50.276;9.372;2023-08-08T01:44:56;13.20;86.80
49413;DHT22;35493;50.276;9.372;2023-08-08T01:47:24;13.20;86.70
49413;DHT22;35493;50.276;9.372;2023-08-08T01:49:51;13.20;86.70
49413;DHT22;35493;50.276;9.372;2023-08-08T01:52:19;13.10;86.80
49413;DHT22;35493;50.276;9.372;2023-08-08T01:54:48;13.10;86.80
49413;DHT22;35493;50.276;9.372;2023-08-08T01:57:15;13.00;87.00
49413;DHT22;35493;50.276;9.372;2023-08-08T01:59:44;13.00;87.00
49413;DHT22;35493;50.276;9.372;2023-08-08T02:02:12;13.00;87.00
49413;DHT22;35493;50.276;9.372;2023-08-08T02:04:40;13.00;87.00
49413;DHT22;35493;50.276;9.372;2023-08-08T02:07:07;12.90;86.90
49413;DHT22;35493;50.276;9.372;2023-08-08T02:09:34;12.90;87.00
49413;DHT22;35493;50.276;9.372;2023-08-08T02:12:01;12.90;86.90
49413;DHT22;35493;50.276;9.372;2023-08-08T02:14:28;12.90;86.90
49413;DHT22;35493;50.276;9.372;2023-08-08T02:16:57;12.90;86.90
49413;DHT22;35493;50.276;9.372;2023-08-08T02:19:24;12.90;86.90
49413;DHT22;35493;50.276;9.372;2023-08-08T02:21:53;12.90;86.90
49413;DHT22;35493;50.276;9.372;2023-08-08T02:24:20;12.90;86.90
49413;DHT22;35493;50.276;9.372;2023-08-08T02:26:47;12.90;86.90
49413;DHT22;35493;50.276;9.372;2023-08-08T02:29:14;12.80;86.90
49413;DHT22;35493;50.276;9.372;2023-08-08T02:31:41;12.90;87.00
49413;DHT22;35493;50.276;9.372;2023-08-08T02:34:10;12.80;87.00
49413;DHT22;35493;50.276;9.372;2023-08-08T02:36:37;12.80;87.00
49413;DHT22;35493;50.276;9.372;2023-08-08T02:39:04;12.80;87.00
49413;DHT22;35493;50.276;9.372;2023-08-08T02:41:31;12.80;87.20
49413;DHT22;35493;50.276;9.372;2023-08-08T02:43:58;12.80;87.30
49413;DHT22;35493;50.276;9.372;2023-08-08T02:46:25;12.70;87.40
49413;DHT22;35493;50.276;9.372;2023-08-08T02:48:52;12.70;87.50
49413;DHT22;35493;50.276;9.372;2023-08-08T02:51:20;12.70;87.70
49413;DHT22;35493;50.276;9.372;2023-08-08T02:53:47;12.70;87.70
49413;DHT22;35493;50.276;9.372;2023-08-08T02:56:15;12.70;87.80
49413;DHT22;35493;50.276;9.372;2023-08-08T02:58:42;12.70;87.80
49413;DHT22;35493;50.276;9.372;2023-08-08T03:01:09;12.70;87.90
49413;DHT22;35493;50.276;9.372;2023-08-08T03:03:40;12.70;87.90
49413;DHT22;35493;50.276;9.372;2023-08-08T03:06:08;12.70;88.00
49413;DHT22;35493;50.276;9.372;2023-08-08T03:08:37;12.70;88.10
49413;DHT22;35493;50.276;9.372;2023-08-08T03:11:04;12.70;88.20
49413;DHT22;35493;50.276;9.372;2023-08-08T03:13:32;12.70;88.20
49413;DHT22;35493;50.276;9.372;2023-08-08T03:15:59;12.70;88.30
49413;DHT22;35493;50.276;9.372;2023-08-08T03:18:29;12.80;88.30
49413;DHT22;35493;50.276;9.372;2023-08-08T03:20:57;12.70;88.30
49413;DHT22;35493;50.276;9.372;2023-08-08T03:23:24;12.80;88.20
49413;DHT22;35493;50.276;9.372;2023-08-08T03:25:54;12.80;88.30
49413;DHT22;35493;50.276;9.372;2023-08-08T03:28:25;12.90;88.30
49413;DHT22;35493;50.276;9.372;2023-08-08T03:30:53;12.90;88.20
49413;DHT22;35493;50.276;9.372;2023-08-08T03:33:21;12.90;88.10
49413;DHT22;35493;50.276;9.372;2023-08-08T03:35:48;12.80;88.20
49413;DHT22;35493;50.276;9.372;2023-08-08T03:38:17;12.90;88.30
49413;DHT22;35493;50.276;9.372;2023-08-08T03:40:44;12.90;88.10
49413;DHT22;35493;50.276;9.372;2023-08-08T03:43:12;12.90;88.00
49413;DHT22;35493;50.276;9.372;2023-08-08T03:45:39;12.70;88.10
49413;DHT22;35493;50.276;9.372;2023-08-08T03:48:07;12.70;88.20
49413;DHT22;35493;50.276;9.372;2023-08-08T03:50:33;12.70;88.30
49413;DHT22;35493;50.276;9.372;2023-08-08T03:53:01;12.60;88.20
49413;DHT22;35493;50.276;9.372;2023-08-08T03:55:28;12.60;88.10
49413;DHT22;35493;50.276;9.372;2023-08-08T03:57:56;12.60;88.10
49413;DHT22;35493;50.276;9.372;2023-08-08T04:00:26;12.60;88.10
49413;DHT22;35493;50.276;9.372;2023-08-08T04:02:53;12.60;88.10
49413;DHT22;35493;50.276;9.372;2023-08-08T04:05:20;12.60;88.00
49413;DHT22;35493;50.276;9.372;2023-08-08T04:07:51;12.60;87.80
49413;DHT22;35493;50.276;9.372;2023-08-08T04:10:18;12.50;87.70
49413;DHT22;35493;50.276;9.372;2023-08-08T04:12:45;12.50;87.70
49413;DHT22;35493;50.276;9.372;2023-08-08T04:15:14;12.40;87.70
49413;DHT22;35493;50.276;9.372;2023-08-08T04:17:42;12.40;87.60
49413;DHT22;35493;50.276;9.372;2023-08-08T04:20:10;12.50;87.60
49413;DHT22;35493;50.276;9.372;2023-08-08T04:22:37;12.40;87.50
49413;DHT22;35493;50.276;9.372;2023-08-08T04:25:05;12.40;87.30
49413;DHT22;35493;50.276;9.372;2023-08-08T04:27:32;12.40;87.30
49413;DHT22;35493;50.276;9.372;2023-08-08T04:29:59;12.40;87.20
49413;DHT22;35493;50.276;9.372;2023-08-08T04:32:26;12.40;87.10
49413;DHT22;35493;50.276;9.372;2023-08-08T04:34:57;12.30;87.00
49413;DHT22;35493;50.276;9.372;2023-08-08T04:37:25;12.30;86.90
49413;DHT22;35493;50.276;9.372;2023-08-08T04:39:54;12.40;86.80
49413;DHT22;35493;50.276;9.372;2023-08-08T04:42:23;12.40;86.70
49413;DHT22;35493;50.276;9.372;2023-08-08T04:44:51;12.40;86.70
49413;DHT22;35493;50.276;9.372;2023-08-08T04:47:19;12.30;86.70
49413;DHT22;35493;50.276;9.372;2023-08-08T04:49:51;12.20;86.70
49413;DHT22;35493;50.276;9.372;2023-08-08T04:52:21;12.20;86.80
49413;DHT22;35493;50.276;9.372;2023-08-08T04:54:48;12.30;86.70
49413;DHT22;35493;50.276;9.372;2023-08-08T04:57:17;12.30;86.90
49413;DHT22;35493;50.276;9.372;2023-08-08T04:59:46;12.40;87.20
49413;DHT22;35493;50.276;9.372;2023-08-08T05:02:13;12.40;87.30
49413;DHT22;35493;50.276;9.372;2023-08-08T05:04:40;12.50;87.40
49413;DHT22;35493;50.276;9.372;2023-08-08T05:07:10;12.50;87.40
49413;DHT22;35493;50.276;9.372;2023-08-08T05:09:45;12.60;87.50
49413;DHT22;35493;50.276;9.372;2023-08-08T05:12:22;12.50;87.60
49413;DHT22;35493;50.276;9.372;2023-08-08T05:14:57;12.50;87.50
49413;DHT22;35493;50.276;9.372;2023-08-08T05:17:31;12.60;87.40
49413;DHT22;35493;50.276;9.372;2023-08-08T05:20:07;12.60;87.30
49413;DHT22;35493;50.276;9.372;2023-08-08T05:22:45;12.60;87.30
49413;DHT22;35493;50.276;9.372;2023-08-08T05:25:26;12.60;87.30
49413;DHT22;35493;50.276;9.372;2023-08-08T05:28:00;12.60;87.50
49413;DHT22;35493;50.276;9.372;2023-08-08T05:30:35;12.50;87.60
49413;DHT22;35493;50.276;9.372;2023-08-08T05:33:12;12.60;87.40
49413;DHT22;35493;50.276;9.372;2023-08-08T05:35:48;12.60;87.40
49413;DHT22;35493;50.276;9.372;2023-08-08T05:38:26;12.60;87.30
49413;DHT22;35493;50.276;9.372;2023-08-08T05:41:06;12.60;87.30
49413;DHT22;35493;50.276;9.372;2023-08-08T05:43:44;12.60;87.30
49413;DHT22;35493;50.276;9.372;2023-08-08T05:46:28;12.70;87.30
49413;DHT22;35493;50.276;9.372;2023-08-08T05:49:06;12.60;87.30
49413;DHT22;35493;50.276;9.372;2023-08-08T05:51:49;12.60;87.30
49413;DHT22;35493;50.276;9.372;2023-08-08T05:54:24;12.70;87.30
49413;DHT22;35493;50.276;9.372;2023-08-08T05:57:06;12.80;87.20
49413;DHT22;35493;50.276;9.372;2023-08-08T05:59:49;12.90;87.30
49413;DHT22;35493;50.276;9.372;2023-08-08T06:02:25;12.90;87.30
49413;DHT22;35493;50.276;9.372;2023-08-08T06:05:05;13.00;87.40
49413;DHT22;35493;50.276;9.372;2023-08-08T06:07:41;13.10;87.20
49413;DHT22;35493;50.276;9.372;2023-08-08T06:10:18;13.10;87.50
49413;DHT22;35493;50.276;9.372;2023-08-08T06:15:54;13.10;87.80
49413;DHT22;35493;50.276;9.372;2023-08-08T06:18:31;13.20;87.70
49413;DHT22;35493;50.276;9.372;2023-08-08T06:21:07;13.20;87.80
49413;DHT22;35493;50.276;9.372;2023-08-08T06:23:44;13.20;87.80
49413;DHT22;35493;50.276;9.372;2023-08-08T06:26:24;13.20;87.50
49413;DHT22;35493;50.276;9.372;2023-08-08T06:28:59;13.30;87.50
49413;DHT22;35493;50.276;9.372;2023-08-08T06:31:40;13.30;87.40
49413;DHT22;35493;50.276;9.372;2023-08-08T06:34:17;13.40;87.90
49413;DHT22;35493;50.276;9.372;2023-08-08T06:36:58;13.50;87.50
49413;DHT22;35493;50.276;9.372;2023-08-08T06:39:36;13.50;87.20
49413;DHT22;35493;50.276;9.372;2023-08-08T06:42:19;13.60;87.10
49413;DHT22;35493;50.276;9.372;2023-08-08T06:45:01;13.70;87.20
49413;DHT22;35493;50.276;9.372;2023-08-08T06:47:44;13.90;87.20
49413;DHT22;35493;50.276;9.372;2023-08-08T06:50:25;14.10;87.00
49413;DHT22;35493;50.276;9.372;2023-08-08T06:52:58;14.20;87.20
49413;DHT22;35493;50.276;9.372;2023-08-08T06:55:41;14.40;87.10
49413;DHT22;35493;50.276;9.372;2023-08-08T06:58:19;14.60;86.50
49413;DHT22;35493;50.276;9.372;2023-08-08T07:00:56;14.80;86.60
49413;DHT22;35493;50.276;9.372;2023-08-08T07:03:44;14.90;86.20
49413;DHT22;35493;50.276;9.372;2023-08-08T07:06:21;15.10;85.90
49413;DHT22;35493;50.276;9.372;2023-08-08T07:08:55;15.20;85.40
49413;DHT22;35493;50.276;9.372;2023-08-08T07:11:32;15.30;84.90
49413;DHT22;35493;50.276;9.372;2023-08-08T07:14:09;15.50;84.50
49413;DHT22;35493;50.276;9.372;2023-08-08T07:16:45;15.60;83.80
49413;DHT22;35493;50.276;9.372;2023-08-08T07:19:26;15.80;83.40
49413;DHT22;35493;50.276;9.372;2023-08-08T07:22:01;16.00;82.90
49413;DHT22;35493;50.276;9.372;2023-08-08T07:24:38;16.10;82.40
49413;DHT22;35493;50.276;9.372;2023-08-08T07:27:22;16.20;82.00
49413;DHT22;35493;50.276;9.372;2023-08-08T07:30:02;16.30;81.30
49413;DHT22;35493;50.276;9.372;2023-08-08T07:32:36;16.40;80.60
49413;DHT22;35493;50.276;9.372;2023-08-08T07:35:22;16.50;80.20
49413;DHT22;35493;50.276;9.372;2023-08-08T07:38:00;16.80;79.90
49413;DHT22;35493;50.276;9.372;2023-08-08T07:40:40;16.90;79.40
49413;DHT22;35493;50.276;9.372;2023-08-08T07:43:20;16.90;78.70
49413;DHT22;35493;50.276;9.372;2023-08-08T07:46:01;17.10;78.70
49413;DHT22;35493;50.276;9.372;2023-08-08T07:48:38;17.10;78.00
49413;DHT22;35493;50.276;9.372;2023-08-08T07:51:17;17.30;77.10
49413;DHT22;35493;50.276;9.372;2023-08-08T07:53:55;17.40;76.30
49413;DHT22;35493;50.276;9.372;2023-08-08T07:56:32;17.60;76.20
49413;DHT22;35493;50.276;9.372;2023-08-08T07:59:14;17.70;75.60
49413;DHT22;35493;50.276;9.372;2023-08-08T08:01:49;17.80;75.70
49413;DHT22;35493;50.276;9.372;2023-08-08T08:04:35;17.90;74.50
49413;DHT22;35493;50.276;9.372;2023-08-08T08:07:25;17.90;74.00
49413;DHT22;35493;50.276;9.372;2023-08-08T08:10:32;18.10;73.40
49413;DHT22;35493;50.276;9.372;2023-08-08T08:13:09;18.00;72.20
49413;DHT22;35493;50.276;9.372;2023-08-08T08:15:44;18.00;72.30
49413;DHT22;35493;50.276;9.372;2023-08-08T08:18:20;18.10;72.10
49413;DHT22;35493;50.276;9.372;2023-08-08T08:20:55;18.10;71.60
49413;DHT22;35493;50.276;9.372;2023-08-08T08:23:33;18.30;70.90
49413;DHT22;35493;50.276;9.372;2023-08-08T08:26:08;18.50;70.30
49413;DHT22;35493;50.276;9.372;2023-08-08T08:28:43;18.60;68.90
49413;DHT22;35493;50.276;9.372;2023-08-08T08:31:16;18.70;69.20
49413;DHT22;35493;50.276;9.372;2023-08-08T08:33:53;18.70;68.70
49413;DHT22;35493;50.276;9.372;2023-08-08T08:36:26;18.80;68.00
49413;DHT22;35493;50.276;9.372;2023-08-08T08:39:10;18.90;67.50
49413;DHT22;35493;50.276;9.372;2023-08-08T08:41:46;19.00;66.70
49413;DHT22;35493;50.276;9.372;2023-08-08T08:44:32;19.20;66.20
49413;DHT22;35493;50.276;9.372;2023-08-08T08:47:04;19.30;66.30
49413;DHT22;35493;50.276;9.372;2023-08-08T08:49:46;19.40;66.00
49413;DHT22;35493;50.276;9.372;2023-08-08T08:52:39;19.60;66.10
49413;DHT22;35493;50.276;9.372;2023-08-08T08:55:39;19.50;65.60
49413;DHT22;35493;50.276;9.372;2023-08-08T08:58:26;19.40;65.20
49413;DHT22;35493;50.276;9.372;2023-08-08T09:01:03;19.40;65.20
49413;DHT22;35493;50.276;9.372;2023-08-08T09:03:44;19.60;65.30
49413;DHT22;35493;50.276;9.372;2023-08-08T09:06:20;19.60;64.90
49413;DHT22;35493;50.276;9.372;2023-08-08T09:08:58;19.90;64.70
49413;DHT22;35493;50.276;9.372;2023-08-08T09:11:37;19.90;64.60
49413;DHT22;35493;50.276;9.372;2023-08-08T09:14:19;20.00;63.40
49413;DHT22;35493;50.276;9.372;2023-08-08T09:17:02;20.00;62.50
49413;DHT22;35493;50.276;9.372;2023-08-08T09:19:44;20.00;62.30
49413;DHT22;35493;50.276;9.372;2023-08-08T09:22:27;20.00;61.30
49413;DHT22;35493;50.276;9.372;2023-08-08T09:25:13;20.00;61.20
49413;DHT22;35493;50.276;9.372;2023-08-08T09:27:59;19.90;61.60
49413;DHT22;35493;50.276;9.372;2023-08-08T09:30:36;19.80;61.60
49413;DHT22;35493;50.276;9.372;2023-08-08T09:33:13;19.70;62.00
49413;DHT22;35493;50.276;9.372;2023-08-08T09:35:57;19.70;62.70
49413;DHT22;35493;50.276;9.372;2023-08-08T09:38:36;19.80;63.30
49413;DHT22;35493;50.276;9.372;2023-08-08T09:41:30;19.70;62.70
49413;DHT22;35493;50.276;9.372;2023-08-08T09:44:22;19.70;63.00
49413;DHT22;35493;50.276;9.372;2023-08-08T09:47:17;19.70;63.00
49413;DHT22;35493;50.276;9.372;2023-08-08T09:49:54;20.00;62.30
49413;DHT22;35493;50.276;9.372;2023-08-08T09:52:30;20.20;62.00
49413;DHT22;35493;50.276;9.372;2023-08-08T09:55:06;20.50;61.60
49413;DHT22;35493;50.276;9.372;2023-08-08T09:57:46;20.60;60.60
49413;DHT22;35493;50.276;9.372;2023-08-08T10:00:36;20.70;60.70
49413;DHT22;35493;50.276;9.372;2023-08-08T10:06:51;20.50;60.30
49413;DHT22;35493;50.276;9.372;2023-08-08T10:09:28;20.50;60.90
49413;DHT22;35493;50.276;9.372;2023-08-08T10:12:04;20.50;60.20
49413;DHT22;35493;50.276;9.372;2023-08-08T10:14:41;20.50;60.50
49413;DHT22;35493;50.276;9.372;2023-08-08T10:17:22;20.50;60.20
49413;DHT22;35493;50.276;9.372;2023-08-08T10:20:05;20.60;59.80
49413;DHT22;35493;50.276;9.372;2023-08-08T10:22:53;20.60;59.50
49413;DHT22;35493;50.276;9.372;2023-08-08T10:25:29;20.70;60.00
49413;DHT22;35493;50.276;9.372;2023-08-08T10:28:08;20.80;60.30
49413;DHT22;35493;50.276;9.372;2023-08-08T10:30:57;21.00;60.20
49413;DHT22;35493;50.276;9.372;2023-08-08T10:33:44;21.10;59.50
49413;DHT22;35493;50.276;9.372;2023-08-08T10:36:21;21.00;59.40
49413;DHT22;35493;50.276;9.372;2023-08-08T10:38:59;21.00;58.90
49413;DHT22;35493;50.276;9.372;2023-08-08T10:41:45;20.90;58.90
49413;DHT22;35493;50.276;9.372;2023-08-08T10:44:31;21.00;58.50
49413;DHT22;35493;50.276;9.372;2023-08-08T10:47:08;21.00;57.80
49413;DHT22;35493;50.276;9.372;2023-08-08T10:49:55;21.10;58.30
49413;DHT22;35493;50.276;9.372;2023-08-08T10:52:50;21.10;57.80
49413;DHT22;35493;50.276;9.372;2023-08-08T10:55:30;20.90;57.50
49413;DHT22;35493;50.276;9.372;2023-08-08T10:58:17;20.90;58.00
49413;DHT22;35493;50.276;9.372;2023-08-08T11:00:59;21.00;58.30
49413;DHT22;35493;50.276;9.372;2023-08-08T11:03:41;21.10;58.50
49413;DHT22;35493;50.276;9.372;2023-08-08T11:06:22;21.30;58.00
49413;DHT22;35493;50.276;9.372;2023-08-08T11:09:04;21.20;57.40
49413;DHT22;35493;50.276;9.372;2023-08-08T11:11:41;21.10;56.80
49413;DHT22;35493;50.276;9.372;2023-08-08T11:14:18;21.10;57.40
49413;DHT22;35493;50.276;9.372;2023-08-08T11:16:57;21.10;57.80
49413;DHT22;35493;50.276;9.372;2023-08-08T11:19:32;21.10;57.10
49413;DHT22;35493;50.276;9.372;2023-08-08T11:22:22;21.10;57.30
49413;DHT22;35493;50.276;9.372;2023-08-08T11:24:57;21.10;57.50
49413;DHT22;35493;50.276;9.372;2023-08-08T11:27:37;21.20;57.30
49413;DHT22;35493;50.276;9.372;2023-08-08T11:30:47;21.20;56.90
49413;DHT22;35493;50.276;9.372;2023-08-08T11:33:47;21.10;57.30
49413;DHT22;35493;50.276;9.372;2023-08-08T11:39:28;20.90;57.40
49413;DHT22;35493;50.276;9.372;2023-08-08T11:42:05;21.00;56.40
49413;DHT22;35493;50.276;9.372;2023-08-08T11:44:41;20.90;56.70
49413;DHT22;35493;50.276;9.372;2023-08-08T11:47:18;21.00;56.80
49413;DHT22;35493;50.276;9.372;2023-08-08T11:50:01;21.10;57.00
49413;DHT22;35493;50.276;9.372;2023-08-08T11:52:45;21.20;56.80
49413;DHT22;35493;50.276;9.372;2023-08-08T11:55:26;21.30;56.70
49413;DHT22;35493;50.276;9.372;2023-08-08T11:58:03;21.40;56.40
49413;DHT22;35493;50.276;9.372;2023-08-08T12:00:42;21.60;57.20
49413;DHT22;35493;50.276;9.372;2023-08-08T12:03:21;21.70;56.90
49413;DHT22;35493;50.276;9.372;2023-08-08T12:06:12;21.60;56.70
49413;DHT22;35493;50.276;9.372;2023-08-08T12:08:49;21.60;57.20
49413;DHT22;35493;50.276;9.372;2023-08-08T12:11:30;21.50;56.00
49413;DHT22;35493;50.276;9.372;2023-08-08T12:14:09;21.30;55.20
49413;DHT22;35493;50.276;9.372;2023-08-08T12:16:43;21.20;54.50
49413;DHT22;35493;50.276;9.372;2023-08-08T12:19:22;21.20;54.90
49413;DHT22;35493;50.276;9.372;2023-08-08T12:21:57;21.30;54.80
49413;DHT22;35493;50.276;9.372;2023-08-08T12:27:12;21.10;54.70
49413;DHT22;35493;50.276;9.372;2023-08-08T12:29:51;21.10;54.70
49413;DHT22;35493;50.276;9.372;2023-08-08T12:32:27;21.10;54.70
49413;DHT22;35493;50.276;9.372;2023-08-08T12:35:03;21.10;54.20
49413;DHT22;35493;50.276;9.372;2023-08-08T12:37:48;21.20;53.70
49413;DHT22;35493;50.276;9.372;2023-08-08T12:40:24;21.30;53.50
49413;DHT22;35493;50.276;9.372;2023-08-08T12:43:09;21.30;53.10
49413;DHT22;35493;50.276;9.372;2023-08-08T12:45:46;21.30;53.00
49413;DHT22;35493;50.276;9.372;2023-08-08T12:48:20;21.60;53.30
49413;DHT22;35493;50.276;9.372;2023-08-08T12:50:56;21.60;52.70
49413;DHT22;35493;50.276;9.372;2023-08-08T12:53:33;21.60;52.40
49413;DHT22;35493;50.276;9.372;2023-08-08T12:56:17;21.70;52.20
49413;DHT22;35493;50.276;9.372;2023-08-08T12:58:57;21.80;52.10
49413;DHT22;35493;50.276;9.372;2023-08-08T13:01:33;21.80;51.70
49413;DHT22;35493;50.276;9.372;2023-08-08T13:04:05;21.80;50.90
49413;DHT22;35493;50.276;9.372;2023-08-08T13:06:32;21.90;50.60
49413;DHT22;35493;50.276;9.372;2023-08-08T13:09:00;21.90;49.80
49413;DHT22;35493;50.276;9.372;2023-08-08T13:11:27;21.90;49.80
49413;DHT22;35493;50.276;9.372;2023-08-08T13:13:57;22.00;49.70
49413;DHT22;35493;50.276;9.372;2023-08-08T13:16:24;22.00;49.40
49413;DHT22;35493;50.276;9.372;2023-08-08T13:18:53;22.00;49.70
49413;DHT22;35493;50.276;9.372;2023-08-08T13:21:30;22.00;49.70
49413;DHT22;35493;50.276;9.372;2023-08-08T13:24:05;22.00;49.80
49413;DHT22;35493;50.276;9.372;2023-08-08T13:26:39;21.90;50.10
49413;DHT22;35493;50.276;9.372;2023-08-08T13:29:18;21.90;50.50
49413;DHT22;35493;50.276;9.372;2023-08-08T13:31:59;21.90;51.10
49413;DHT22;35493;50.276;9.372;2023-08-08T13:34:34;21.90;51.80
49413;DHT22;35493;50.276;9.372;2023-08-08T13:37:13;21.70;51.70
49413;DHT22;35493;50.276;9.372;2023-08-08T13:39:49;21.50;52.90
49413;DHT22;35493;50.276;9.372;2023-08-08T13:42:27;21.30;51.40
49413;DHT22;35493;50.276;9.372;2023-08-08T13:45:09;21.20;51.50
49413;DHT22;35493;50.276;9.372;2023-08-08T13:47:46;21.10;51.50
49413;DHT22;35493;50.276;9.372;2023-08-08T13:50:21;20.90;51.90
49413;DHT22;35493;50.276;9.372;2023-08-08T13:53:06;20.80;51.90
49413;DHT22;35493;50.276;9.372;2023-08-08T13:55:42;20.60;52.30
49413;DHT22;35493;50.276;9.372;2023-08-08T13:58:19;20.60;52.70
49413;DHT22;35493;50.276;9.372;2023-08-08T14:00:58;20.60;52.80
49413;DHT22;35493;50.276;9.372;2023-08-08T14:03:33;20.60;53.10
49413;DHT22;35493;50.276;9.372;2023-08-08T14:06:11;20.50;53.70
49413;DHT22;35493;50.276;9.372;2023-08-08T14:08:45;20.50;54.00
49413;DHT22;35493;50.276;9.372;2023-08-08T14:11:13;20.50;53.80
49413;DHT22;35493;50.276;9.372;2023-08-08T14:13:41;20.40;54.70
49413;DHT22;35493;50.276;9.372;2023-08-08T14:16:09;20.50;54.90
49413;DHT22;35493;50.276;9.372;2023-08-08T14:18:36;20.40;54.50
49413;DHT22;35493;50.276;9.372;2023-08-08T14:21:03;20.50;55.70
49413;DHT22;35493;50.276;9.372;2023-08-08T14:23:31;20.50;55.10
49413;DHT22;35493;50.276;9.372;2023-08-08T14:25:58;20.60;55.10
49413;DHT22;35493;50.276;9.372;2023-08-08T14:28:25;20.70;54.70
49413;DHT22;35493;50.276;9.372;2023-08-08T14:30:52;20.80;54.90
49413;DHT22;35493;50.276;9.372;2023-08-08T14:33:21;20.70;54.20
49413;DHT22;35493;50.276;9.372;2023-08-08T14:35:48;20.70;55.00
49413;DHT22;35493;50.276;9.372;2023-08-08T14:38:16;20.70;54.60
49413;DHT22;35493;50.276;9.372;2023-08-08T14:40:43;20.60;55.30
49413;DHT22;35493;50.276;9.372;2023-08-08T14:43:10;20.60;55.50
49413;DHT22;35493;50.276;9.372;2023-08-08T14:45:37;20.60;55.30
49413;DHT22;35493;50.276;9.372;2023-08-08T14:48:05;20.50;56.20
49413;DHT22;35493;50.276;9.372;2023-08-08T14:50:33;20.50;55.80
49413;DHT22;35493;50.276;9.372;2023-08-08T14:53:01;20.40;57.00
49413;DHT22;35493;50.276;9.372;2023-08-08T14:55:28;20.40;56.70
49413;DHT22;35493;50.276;9.372;2023-08-08T14:57:55;20.30;56.00
49413;DHT22;35493;50.276;9.372;2023-08-08T15:00:23;20.30;56.00
49413;DHT22;35493;50.276;9.372;2023-08-08T15:02:50;20.20;55.70
49413;DHT22;35493;50.276;9.372;2023-08-08T15:05:17;20.10;56.60
49413;DHT22;35493;50.276;9.372;2023-08-08T15:07:50;20.10;55.90
49413;DHT22;35493;50.276;9.372;2023-08-08T15:10:28;20.00;56.20
49413;DHT22;35493;50.276;9.372;2023-08-08T15:13:03;19.90;56.60
49413;DHT22;35493;50.276;9.372;2023-08-08T15:15:39;19.90;57.00
49413;DHT22;35493;50.276;9.372;2023-08-08T15:18:16;19.90;56.60
49413;DHT22;35493;50.276;9.372;2023-08-08T15:20:52;19.90;56.60
49413;DHT22;35493;50.276;9.372;2023-08-08T15:23:31;19.90;56.70
49413;DHT22;35493;50.276;9.372;2023-08-08T15:26:01;19.90;56.90
49413;DHT22;35493;50.276;9.372;2023-08-08T15:28:37;19.90;57.10
49413;DHT22;35493;50.276;9.372;2023-08-08T15:31:13;19.90;57.70
49413;DHT22;35493;50.276;9.372;2023-08-08T15:33:49;19.80;57.50
49413;DHT22;35493;50.276;9.372;2023-08-08T15:36:32;19.80;57.70
49413;DHT22;35493;50.276;9.372;2023-08-08T15:39:15;19.70;58.30
49413;DHT22;35493;50.276;9.372;2023-08-08T15:41:53;19.70;57.60
49413;DHT22;35493;50.276;9.372;2023-08-08T15:44:31;19.60;57.50
49413;DHT22;35493;50.276;9.372;2023-08-08T15:47:07;19.60;57.90
49413;DHT22;35493;50.276;9.372;2023-08-08T15:49:43;19.60;58.40
49413;DHT22;35493;50.276;9.372;2023-08-08T15:52:20;19.60;57.30
49413;DHT22;35493;50.276;9.372;2023-08-08T15:55:00;19.50;57.70
49413;DHT22;35493;50.276;9.372;2023-08-08T15:57:38;19.50;58.00
49413;DHT22;35493;50.276;9.372;2023-08-08T16:00:15;19.50;58.30
49413;DHT22;35493;50.276;9.372;2023-08-08T16:02:51;19.40;58.20
49413;DHT22;35493;50.276;9.372;2023-08-08T16:05:32;19.30;59.00
49413;DHT22;35493;50.276;9.372;2023-08-08T16:08:08;19.40;59.10
49413;DHT22;35493;50.276;9.372;2023-08-08T16:10:48;19.40;59.00
49413;DHT22;35493;50.276;9.372;2023-08-08T16:13:20;19.40;58.40
49413;DHT22;35493;50.276;9.372;2023-08-08T16:15:56;19.40;58.60
49413;DHT22;35493;50.276;9.372;2023-08-08T16:18:32;19.40;59.10
49413;DHT22;35493;50.276;9.372;2023-08-08T16:21:07;19.40;59.10
49413;DHT22;35493;50.276;9.372;2023-08-08T16:23:44;19.40;59.40
49413;DHT22;35493;50.276;9.372;2023-08-08T16:26:25;19.30;59.80
49413;DHT22;35493;50.276;9.372;2023-08-08T16:29:02;19.30;60.50